createdAt,value
2023-05-06T00:01:25.771Z,5.96
2023-05-06T00:03:58.006Z,5.79
2023-05-06T00:06:30.422Z,6.15
2023-05-06T00:09:02.664Z,6.49
2023-05-06T00:11:34.927Z,6.76
2023-05-06T00:14:09.750Z,6.60
2023-05-06T00:16:42.127Z,6.79
2023-05-06T00:19:14.350Z,7.08
2023-05-06T00:21:46.482Z,6.76
2023-05-06T00:24:18.680Z,7.26
2023-05-06T00:26:51.010Z,8.36
2023-05-06T00:29:25.996Z,8.29
2023-05-06T00:31:58.195Z,9.33
2023-05-06T00:34:30.444Z,9.74
2023-05-06T00:37:02.764Z,9.40
2023-05-06T00:39:35.176Z,10.00
2023-05-06T00:42:07.548Z,9.89
2023-05-06T00:44:42.347Z,9.77
2023-05-06T00:47:14.655Z,9.74
2023-05-06T00:49:47.331Z,11.06
2023-05-06T00:52:21.443Z,10.51
2023-05-06T00:54:54.263Z,11.00
2023-05-06T00:57:26.779Z,9.98
2023-05-06T01:00:01.725Z,10.14
2023-05-06T01:02:46.573Z,10.24
2023-05-06T01:05:22.457Z,10.34
2023-05-06T01:08:04.474Z,10.30
2023-05-06T01:10:42.806Z,11.38
2023-05-06T01:13:25.103Z,11.39
2023-05-06T01:16:03.218Z,11.76
2023-05-06T01:18:36.995Z,11.65
2023-05-06T01:21:10.430Z,10.66
2023-05-06T01:24:00.192Z,11.48
2023-05-06T01:26:32.534Z,11.39
2023-05-06T01:29:05.307Z,11.43
2023-05-06T01:31:47.579Z,11.39
2023-05-06T01:34:31.488Z,10.29
2023-05-06T01:37:14.891Z,10.59
2023-05-06T01:39:51.897Z,11.03
2023-05-06T01:42:28.369Z,11.19
2023-05-06T01:45:04.044Z,10.71
2023-05-06T01:47:37.333Z,11.29
2023-05-06T01:50:10.658Z,11.15
2023-05-06T01:52:43.187Z,10.19
2023-05-06T01:55:18.253Z,10.44
2023-05-06T01:57:50.513Z,9.64
2023-05-06T02:00:24.907Z,8.25
2023-05-06T02:02:57.170Z,8.15
2023-05-06T02:05:29.750Z,7.55
2023-05-06T02:08:01.968Z,6.91
2023-05-06T02:10:36.756Z,7.66
2023-05-06T02:13:09.079Z,7.52
2023-05-06T02:15:41.559Z,7.26
2023-05-06T02:18:14.104Z,7.61
2023-05-06T02:20:46.224Z,7.57
2023-05-06T02:23:18.397Z,8.53
2023-05-06T02:25:53.429Z,8.89
2023-05-06T02:28:25.564Z,8.41
2023-05-06T02:31:02.951Z,8.46
2023-05-06T02:33:35.180Z,8.26
2023-05-06T02:36:07.759Z,8.28
2023-05-06T02:38:39.954Z,8.04
2023-05-06T02:41:14.712Z,8.44
2023-05-06T02:43:46.876Z,8.11
2023-05-06T02:46:19.137Z,8.14
2023-05-06T02:48:51.379Z,8.14
2023-05-06T02:51:23.529Z,8.29
2023-05-06T02:53:55.787Z,8.70
2023-05-06T02:56:31.400Z,8.18
2023-05-06T02:59:03.621Z,8.50
2023-05-06T03:01:35.939Z,8.39
2023-05-06T03:04:08.273Z,7.67
2023-05-06T03:06:40.848Z,7.35
2023-05-06T03:09:13.062Z,6.89
2023-05-06T03:11:47.897Z,7.32
2023-05-06T03:14:20.145Z,7.35
2023-05-06T03:16:52.639Z,7.83
2023-05-06T03:19:25.036Z,7.84
2023-05-06T03:21:57.872Z,7.67
2023-05-06T03:24:30.779Z,7.75
2023-05-06T03:27:05.575Z,7.64
2023-05-06T03:29:37.743Z,7.96
2023-05-06T03:32:10.726Z,8.74
2023-05-06T03:34:42.987Z,9.57
2023-05-06T03:37:15.320Z,10.88
2023-05-06T03:39:47.616Z,11.86
2023-05-06T03:42:22.452Z,11.38
2023-05-06T03:44:54.668Z,11.36
2023-05-06T03:47:26.911Z,11.10
2023-05-06T03:49:59.100Z,11.06
2023-05-06T03:52:31.487Z,10.45
2023-05-06T03:55:03.856Z,11.19
2023-05-06T03:57:38.860Z,10.71
2023-05-06T04:00:12.479Z,11.04
2023-05-06T04:02:44.817Z,10.56
2023-05-06T04:05:17.298Z,10.12
2023-05-06T04:07:49.463Z,10.38
2023-05-06T04:10:21.878Z,11.00
2023-05-06T04:12:56.703Z,10.66
2023-05-06T04:15:32.131Z,10.62
2023-05-06T04:18:04.386Z,10.93
2023-05-06T04:20:36.665Z,11.04
2023-05-06T04:23:08.868Z,11.36
2023-05-06T04:25:42.776Z,11.66
2023-05-06T04:28:18.733Z,11.09
2023-05-06T04:30:51.809Z,11.36
2023-05-06T04:33:26.373Z,11.40
2023-05-06T04:35:59.368Z,12.84
2023-05-06T04:38:32.398Z,13.28
2023-05-06T04:41:05.200Z,13.34
2023-05-06T04:43:39.977Z,13.02
2023-05-06T04:46:12.510Z,12.96
2023-05-06T04:48:45.235Z,12.95
2023-05-06T04:51:17.452Z,12.93
2023-05-06T04:53:49.686Z,13.25
2023-05-06T04:56:22.792Z,13.01
2023-05-06T04:58:57.692Z,13.34
2023-05-06T05:01:30.011Z,13.86
2023-05-06T05:04:02.283Z,14.24
2023-05-06T05:06:34.803Z,13.90
2023-05-06T05:09:07.214Z,13.59
2023-05-06T05:11:41.931Z,13.45
2023-05-06T05:14:16.732Z,13.74
2023-05-06T05:16:49.149Z,13.31
2023-05-06T05:19:21.449Z,13.68
2023-05-06T05:21:53.802Z,13.64
2023-05-06T05:24:26.194Z,13.67
2023-05-06T05:26:58.664Z,14.54
2023-05-06T05:29:33.498Z,14.85
2023-05-06T05:32:05.680Z,14.54
2023-05-06T05:34:38.075Z,14.75
2023-05-06T05:37:11.538Z,15.38
2023-05-06T05:39:43.798Z,15.45
2023-05-06T05:42:16.240Z,15.48
2023-05-06T05:44:51.047Z,15.41
2023-05-06T05:47:23.375Z,15.33
2023-05-06T05:49:57.164Z,16.34
2023-05-06T05:52:29.467Z,19.35
2023-05-06T05:55:02.834Z,18.24
2023-05-06T05:57:35.063Z,18.14
2023-05-06T06:00:13.473Z,19.21
2023-05-06T06:02:46.217Z,19.44
2023-05-06T06:05:18.774Z,21.74
2023-05-06T06:07:52.159Z,21.71
2023-05-06T06:10:24.626Z,21.41
2023-05-06T06:12:56.943Z,20.85
2023-05-06T06:15:32.640Z,21.29
2023-05-06T06:18:05.501Z,21.41
2023-05-06T06:20:37.946Z,21.99
2023-05-06T06:23:10.286Z,23.07
2023-05-06T06:25:42.670Z,22.91
2023-05-06T06:28:14.928Z,22.12
2023-05-06T06:30:49.840Z,20.83
2023-05-06T06:33:22.173Z,20.74
2023-05-06T06:35:54.931Z,20.71
2023-05-06T06:38:27.157Z,20.67
2023-05-06T06:40:59.383Z,20.46
2023-05-06T06:43:31.593Z,20.65
2023-05-06T06:46:06.604Z,22.23
2023-05-06T06:48:38.837Z,23.19
2023-05-06T06:51:11.207Z,27.61
2023-05-06T06:53:43.456Z,36.94
2023-05-06T06:56:16.430Z,30.24
2023-05-06T06:58:48.991Z,27.67
2023-05-06T07:01:24.417Z,24.49
2023-05-06T07:03:56.735Z,23.16
2023-05-06T07:06:29.191Z,24.36
2023-05-06T07:09:01.427Z,23.66
2023-05-06T07:11:33.783Z,23.04
2023-05-06T07:14:05.967Z,22.89
2023-05-06T07:16:41.862Z,22.84
2023-05-06T07:19:14.768Z,22.28
2023-05-06T07:21:47.018Z,23.18
2023-05-06T07:24:19.324Z,22.94
2023-05-06T07:26:52.264Z,22.62
2023-05-06T07:29:24.480Z,22.87
2023-05-06T07:31:59.383Z,23.29
2023-05-06T07:34:31.649Z,22.61
2023-05-06T07:37:04.711Z,22.64
2023-05-06T07:39:36.960Z,23.44
2023-05-06T07:42:13.200Z,24.10
2023-05-06T07:44:45.487Z,23.63
2023-05-06T07:47:29.954Z,24.50
2023-05-06T07:50:02.980Z,24.28
2023-05-06T07:52:35.750Z,24.51
2023-05-06T07:55:09.908Z,23.99
2023-05-06T07:57:42.589Z,23.97
2023-05-06T08:00:15.972Z,23.44
2023-05-06T08:02:50.908Z,24.63
2023-05-06T08:05:23.546Z,24.09
2023-05-06T08:07:55.924Z,23.87
2023-05-06T08:10:28.392Z,24.15
2023-05-06T08:13:00.630Z,24.34
2023-05-06T08:15:33.300Z,23.54
2023-05-06T08:18:20.897Z,23.04
2023-05-06T08:20:54.322Z,22.27
2023-05-06T08:23:26.641Z,23.31
2023-05-06T08:25:59.272Z,22.85
2023-05-06T08:28:32.126Z,23.66
2023-05-06T08:31:04.362Z,23.46
2023-05-06T08:33:39.196Z,24.34
2023-05-06T08:36:12.288Z,24.77
2023-05-06T08:38:49.153Z,24.48
2023-05-06T08:41:24.119Z,24.11
2023-05-06T08:44:01.337Z,23.71
2023-05-06T08:46:33.850Z,23.76
2023-05-06T08:49:08.748Z,23.21
2023-05-06T08:51:43.602Z,23.31
2023-05-06T08:54:17.115Z,23.54
2023-05-06T08:56:56.471Z,23.26
2023-05-06T08:59:33.082Z,22.79
2023-05-06T09:02:05.576Z,23.64
2023-05-06T09:04:41.729Z,23.24
2023-05-06T09:07:13.929Z,24.69
2023-05-06T09:09:46.165Z,27.26
2023-05-06T09:12:18.746Z,29.39
2023-05-06T09:14:56.109Z,31.51
2023-05-06T09:17:28.661Z,37.45
2023-05-06T09:20:04.056Z,34.45
2023-05-06T09:22:37.052Z,31.26
2023-05-06T09:25:12.199Z,29.48
2023-05-06T09:27:44.914Z,26.40
2023-05-06T09:30:18.290Z,23.20
2023-05-06T09:32:51.733Z,21.76
2023-05-06T09:35:31.858Z,20.50
2023-05-06T09:38:06.494Z,19.89
2023-05-06T09:40:40.063Z,21.12
2023-05-06T09:43:12.766Z,21.64
2023-05-06T09:45:46.507Z,23.29
2023-05-06T09:48:19.714Z,23.95
2023-05-06T09:50:54.867Z,23.24
2023-05-06T09:53:29.114Z,22.49
2023-05-06T09:56:01.777Z,22.76
2023-05-06T09:58:36.323Z,22.89
2023-05-06T10:01:12.070Z,23.14
2023-05-06T10:03:46.463Z,22.18
2023-05-06T10:06:23.241Z,22.24
2023-05-06T10:08:56.624Z,22.49
2023-05-06T10:11:30.180Z,22.52
2023-05-06T10:14:05.302Z,21.72
2023-05-06T10:16:40.335Z,19.39
2023-05-06T10:19:13.347Z,17.01
2023-05-06T10:21:58.112Z,17.24
2023-05-06T10:24:37.592Z,17.74
2023-05-06T10:27:11.132Z,19.06
2023-05-06T10:29:43.787Z,19.56
2023-05-06T10:32:16.517Z,18.70
2023-05-06T10:34:58.312Z,17.25
2023-05-06T10:37:37.235Z,17.12
2023-05-06T10:40:12.780Z,16.79
2023-05-06T10:42:45.276Z,14.16
2023-05-06T10:45:18.200Z,11.56
2023-05-06T10:48:12.868Z,11.66
2023-05-06T10:50:46.887Z,11.61
2023-05-06T10:53:21.752Z,12.03
2023-05-06T10:56:11.924Z,12.07
2023-05-06T10:58:44.114Z,11.31
2023-05-06T11:01:19.102Z,10.35
2023-05-06T11:03:51.499Z,9.67
2023-05-06T11:06:39.613Z,9.41
2023-05-06T11:09:21.922Z,8.92
2023-05-06T11:11:57.402Z,8.38
2023-05-06T11:14:35.602Z,7.73
2023-05-06T11:17:09.857Z,9.43
2023-05-06T11:19:43.608Z,9.54
2023-05-06T11:22:42.672Z,9.39
2023-05-06T11:25:17.920Z,9.86
2023-05-06T11:27:50.934Z,10.54
2023-05-06T11:30:23.253Z,10.29
2023-05-06T11:33:05.391Z,10.24
2023-05-06T11:35:41.810Z,9.84
2023-05-06T11:38:14.067Z,8.72
2023-05-06T11:40:48.857Z,10.05
2023-05-06T11:43:21.964Z,10.21
2023-05-06T11:45:54.427Z,10.26
2023-05-06T11:48:26.690Z,12.49
2023-05-06T11:50:59.545Z,13.90
2023-05-06T11:53:33.728Z,10.70
2023-05-06T11:56:11.122Z,8.41
2023-05-06T11:58:43.279Z,7.35
2023-05-06T12:01:15.498Z,8.31
2023-05-06T12:03:47.891Z,10.35
2023-05-06T12:06:24.097Z,10.94
2023-05-06T12:08:57.048Z,10.59
2023-05-06T12:11:32.388Z,10.69
2023-05-06T12:14:05.795Z,11.18
2023-05-06T12:16:39.366Z,10.62
2023-05-06T12:19:11.814Z,9.34
2023-05-06T12:21:44.140Z,8.50
2023-05-06T12:24:16.806Z,8.29
2023-05-06T12:26:53.336Z,8.83
2023-05-06T12:29:25.897Z,7.48
2023-05-06T12:32:12.739Z,8.06
2023-05-06T12:34:46.045Z,8.47
2023-05-06T12:37:32.005Z,9.01
2023-05-06T12:40:04.335Z,11.05
2023-05-06T12:42:39.441Z,13.41
2023-05-06T12:45:18.673Z,15.11
2023-05-06T12:47:57.860Z,14.72
2023-05-06T12:50:38.135Z,15.61
2023-05-06T12:53:13.462Z,14.79
2023-05-06T12:55:46.743Z,15.86
2023-05-06T12:58:24.873Z,15.70
2023-05-06T13:00:57.266Z,15.99
2023-05-06T13:03:38.221Z,16.19
2023-05-06T13:06:11.339Z,14.41
2023-05-06T13:08:43.963Z,15.16
2023-05-06T13:11:16.241Z,14.92
2023-05-06T13:13:51.258Z,14.14
2023-05-06T13:16:23.918Z,14.61
2023-05-06T13:18:56.202Z,13.66
2023-05-06T13:21:28.661Z,14.71
2023-05-06T13:24:00.908Z,13.19
2023-05-06T13:26:33.206Z,12.44
2023-05-06T13:29:08.055Z,12.44
2023-05-06T13:31:40.383Z,13.19
2023-05-06T13:34:12.963Z,12.69
2023-05-06T13:36:45.374Z,11.99
2023-05-06T13:39:17.551Z,11.99
2023-05-06T13:41:51.227Z,10.89
2023-05-06T13:44:26.502Z,9.89
2023-05-06T13:46:59.066Z,8.64
2023-05-06T13:49:31.307Z,7.01
2023-05-06T13:52:04.758Z,7.09
2023-05-06T13:54:38.774Z,8.34
2023-05-06T13:57:10.958Z,8.91
2023-05-06T13:59:45.867Z,6.24
2023-05-06T14:02:18.659Z,5.45
2023-05-06T14:05:03.307Z,4.91
2023-05-06T14:07:35.586Z,4.61
2023-05-06T14:10:08.288Z,4.80
2023-05-06T14:12:40.815Z,4.27
2023-05-06T14:15:17.182Z,4.51
2023-05-06T14:17:49.395Z,4.52
2023-05-06T14:20:21.624Z,4.06
2023-05-06T14:22:53.867Z,4.21
2023-05-06T14:25:28.159Z,3.89
2023-05-06T14:28:00.441Z,3.48
2023-05-06T14:30:35.878Z,3.32
2023-05-06T14:33:08.414Z,3.16
2023-05-06T14:35:46.155Z,3.12
2023-05-06T14:38:18.405Z,3.31
2023-05-06T14:40:50.594Z,3.16
2023-05-06T14:43:23.898Z,3.33
2023-05-06T14:45:58.963Z,3.36
2023-05-06T14:48:32.191Z,3.54
2023-05-06T14:51:05.462Z,3.27
2023-05-06T14:53:37.627Z,3.29
2023-05-06T14:56:13.492Z,3.38
2023-05-06T14:58:45.704Z,3.64
2023-05-06T15:01:20.523Z,3.45
2023-05-06T15:03:53.552Z,3.69
2023-05-06T15:06:26.056Z,3.64
2023-05-06T15:08:58.280Z,3.87
2023-05-06T15:11:30.572Z,3.90
2023-05-06T15:14:02.788Z,3.98
2023-05-06T15:16:37.690Z,3.80
2023-05-06T15:19:10.202Z,3.45
2023-05-06T15:21:42.522Z,3.81
2023-05-06T15:24:14.866Z,4.24
2023-05-06T15:26:47.093Z,4.47
2023-05-06T15:29:20.584Z,4.61
2023-05-06T15:31:57.979Z,4.54
2023-05-06T15:34:30.217Z,4.09
2023-05-06T15:37:03.516Z,4.11
2023-05-06T15:39:40.472Z,3.89
2023-05-06T15:42:13.748Z,4.06
2023-05-06T15:44:46.067Z,3.84
2023-05-06T15:47:20.833Z,3.44
2023-05-06T15:49:57.234Z,3.50
2023-05-06T15:52:29.433Z,3.30
2023-05-06T15:55:02.361Z,3.44
2023-05-06T15:57:34.707Z,3.61
2023-05-06T16:00:08.365Z,3.82
2023-05-06T16:02:43.368Z,4.24
2023-05-06T16:05:15.984Z,4.26
2023-05-06T16:07:48.292Z,4.36
2023-05-06T16:10:20.898Z,4.17
2023-05-06T16:12:53.129Z,3.99
2023-05-06T16:15:25.706Z,4.01
2023-05-06T16:18:00.599Z,4.22
2023-05-06T16:20:33.059Z,4.37
2023-05-06T16:23:05.642Z,4.14
2023-05-06T16:25:38.398Z,4.20
2023-05-06T16:28:11.627Z,3.46
2023-05-06T16:30:45.073Z,3.44
2023-05-06T16:33:29.614Z,3.99
2023-05-06T16:36:05.893Z,3.78
2023-05-06T16:38:38.167Z,4.04
2023-05-06T16:41:13.261Z,4.07
2023-05-06T16:43:49.744Z,4.17
2023-05-06T16:46:25.042Z,3.85
2023-05-06T16:49:01.213Z,3.86
2023-05-06T16:51:33.918Z,4.09
2023-05-06T16:54:06.327Z,4.04
2023-05-06T16:56:50.772Z,4.34
2023-05-06T16:59:26.201Z,3.99
2023-05-06T17:02:01.539Z,4.01
2023-05-06T17:04:36.779Z,4.31
2023-05-06T17:07:13.774Z,3.86
2023-05-06T17:09:51.242Z,3.86
2023-05-06T17:12:23.977Z,3.44
2023-05-06T17:14:56.316Z,3.28
2023-05-06T17:17:29.117Z,3.32
2023-05-06T17:20:05.459Z,3.09
2023-05-06T17:22:42.849Z,3.01
2023-05-06T17:25:16.435Z,3.08
2023-05-06T17:27:49.222Z,3.24
2023-05-06T17:30:23.527Z,2.99
2023-05-06T17:32:59.006Z,2.96
2023-05-06T17:35:34.024Z,3.15
2023-05-06T17:38:06.181Z,3.30
2023-05-06T17:40:38.420Z,3.12
2023-05-06T17:43:10.736Z,3.24
2023-05-06T17:45:44.714Z,3.24
2023-05-06T17:48:16.914Z,3.58
2023-05-06T17:50:51.663Z,3.41
2023-05-06T17:53:26.184Z,3.19
2023-05-06T17:55:58.637Z,3.51
2023-05-06T17:58:30.936Z,3.59
2023-05-06T18:01:03.261Z,3.77
2023-05-06T18:03:35.578Z,3.95
2023-05-06T18:06:10.932Z,4.46
2023-05-06T18:08:44.548Z,4.70
2023-05-06T18:11:16.803Z,4.85
2023-05-06T18:13:49.090Z,5.15
2023-05-06T18:16:21.584Z,5.09
2023-05-06T18:18:53.847Z,5.73
2023-05-06T18:21:28.683Z,6.68
2023-05-06T18:24:10.308Z,7.24
2023-05-06T18:26:48.090Z,7.16
2023-05-06T18:29:20.295Z,7.84
2023-05-06T18:31:52.552Z,7.74
2023-05-06T18:34:24.723Z,8.16
2023-05-06T18:37:00.202Z,8.77
2023-05-06T18:39:32.442Z,8.81
2023-05-06T18:42:04.605Z,9.38
2023-05-06T18:44:37.009Z,8.99
2023-05-06T18:47:09.660Z,9.60
2023-05-06T18:49:41.859Z,10.09
2023-05-06T18:52:17.903Z,10.01
2023-05-06T18:54:51.476Z,10.31
2023-05-06T18:57:24.156Z,10.52
2023-05-06T18:59:56.546Z,10.91
2023-05-06T19:02:28.849Z,10.76
2023-05-06T19:05:01.504Z,11.14
2023-05-06T19:07:36.312Z,11.49
2023-05-06T19:10:09.298Z,11.83
2023-05-06T19:12:41.784Z,11.78
2023-05-06T19:15:15.177Z,12.11
2023-05-06T19:17:47.528Z,11.74
2023-05-06T19:20:20.038Z,11.95
2023-05-06T19:22:54.900Z,12.25
2023-05-06T19:25:27.356Z,12.29
2023-05-06T19:27:59.572Z,12.11
2023-05-06T19:30:36.230Z,12.06
2023-05-06T19:33:08.773Z,12.32
2023-05-06T19:35:42.026Z,12.24
2023-05-06T19:38:16.830Z,13.01
2023-05-06T19:40:49.069Z,13.07
2023-05-06T19:43:21.419Z,13.06
2023-05-06T19:45:54.000Z,13.19
2023-05-06T19:48:26.387Z,13.37
2023-05-06T19:50:58.652Z,13.56
2023-05-06T19:53:33.531Z,12.92
2023-05-06T19:56:13.416Z,12.91
2023-05-06T19:58:46.057Z,12.76
2023-05-06T20:01:22.654Z,13.09
2023-05-06T20:03:55.312Z,13.24
2023-05-06T20:06:29.660Z,13.78
2023-05-06T20:09:05.054Z,13.85
2023-05-06T20:11:37.375Z,13.98
2023-05-06T20:14:09.737Z,14.12
2023-05-06T20:16:42.085Z,14.27
2023-05-06T20:19:14.444Z,14.61
2023-05-06T20:21:46.745Z,15.31
2023-05-06T20:24:24.102Z,15.08
2023-05-06T20:26:58.178Z,15.96
2023-05-06T20:29:30.987Z,16.20
2023-05-06T20:32:03.452Z,17.08
2023-05-06T20:34:35.852Z,17.24
2023-05-06T20:37:08.312Z,16.62
2023-05-06T20:39:43.883Z,16.79
2023-05-06T20:42:16.127Z,16.21
2023-05-06T20:44:48.387Z,16.62
2023-05-06T20:47:20.700Z,17.72
2023-05-06T20:49:53.050Z,17.91
2023-05-06T20:52:25.823Z,17.75
2023-05-06T20:55:01.203Z,17.90
2023-05-06T20:57:33.484Z,17.10
2023-05-06T21:00:08.090Z,16.63
2023-05-06T21:02:41.864Z,15.76
2023-05-06T21:05:14.940Z,15.92
2023-05-06T21:07:47.326Z,15.69
2023-05-06T21:10:22.453Z,14.90
2023-05-06T21:12:55.292Z,15.11
2023-05-06T21:15:27.748Z,14.91
2023-05-06T21:18:00.075Z,14.21
2023-05-06T21:20:32.536Z,14.63
2023-05-06T21:23:05.219Z,14.41
2023-05-06T21:25:40.353Z,14.05
2023-05-06T21:28:13.841Z,14.86
2023-05-06T21:30:46.186Z,14.17
2023-05-06T21:33:19.637Z,14.44
2023-05-06T21:35:51.973Z,14.41
2023-05-06T21:38:24.257Z,14.69
2023-05-06T21:40:59.150Z,14.67
2023-05-06T21:43:33.343Z,13.97
2023-05-06T21:46:07.359Z,13.94
2023-05-06T21:48:39.632Z,13.84
2023-05-06T21:51:11.862Z,13.81
2023-05-06T21:53:44.091Z,14.16
2023-05-06T21:56:19.059Z,14.11
2023-05-06T21:58:51.388Z,13.56
2023-05-06T22:01:23.635Z,14.06
2023-05-06T22:03:56.516Z,14.08
2023-05-06T22:06:29.278Z,14.11
2023-05-06T22:09:01.564Z,13.62
2023-05-06T22:11:36.341Z,13.44
2023-05-06T22:14:08.769Z,13.47
2023-05-06T22:16:41.692Z,13.77
2023-05-06T22:19:14.299Z,14.33
2023-05-06T22:21:46.606Z,13.56
2023-05-06T22:24:18.840Z,13.76
2023-05-06T22:26:53.714Z,13.47
2023-05-06T22:29:26.030Z,13.90
2023-05-06T22:31:58.362Z,14.11
2023-05-06T22:34:30.678Z,13.73
2023-05-06T22:37:03.198Z,14.62
2023-05-06T22:39:35.474Z,14.31
2023-05-06T22:42:10.677Z,14.15
2023-05-06T22:44:42.897Z,14.29
2023-05-06T22:47:16.575Z,14.42
2023-05-06T22:49:48.835Z,14.15
2023-05-06T22:52:21.079Z,14.60
2023-05-06T22:54:53.366Z,14.62
2023-05-06T22:57:28.247Z,14.36
2023-05-06T23:00:00.520Z,13.56
2023-05-06T23:02:33.126Z,14.61
2023-05-06T23:05:05.495Z,15.31
2023-05-06T23:07:37.695Z,15.13
2023-05-06T23:10:11.653Z,15.68
2023-05-06T23:12:46.515Z,15.33
2023-05-06T23:15:18.835Z,15.91
2023-05-06T23:17:51.062Z,15.62
2023-05-06T23:20:23.360Z,15.63
2023-05-06T23:22:55.717Z,15.13
2023-05-06T23:25:28.201Z,14.37
2023-05-06T23:28:03.021Z,15.11
2023-05-06T23:30:35.687Z,14.89
2023-05-06T23:33:08.019Z,14.41
2023-05-06T23:35:40.302Z,13.99
2023-05-06T23:38:12.579Z,13.70
2023-05-06T23:40:44.956Z,13.47
2023-05-06T23:43:19.790Z,13.89
2023-05-06T23:45:52.216Z,13.86
2023-05-06T23:48:24.362Z,14.11
2023-05-06T23:50:56.632Z,14.87
2023-05-06T23:53:28.888Z,14.22
2023-05-06T23:56:01.416Z,14.31
2023-05-06T23:58:36.204Z,14.31
